sensor_id;sensor_type;location;lat;lon;timestamp;P1;durP1;ratioP1;P2;durP2;ratioP2
50086;SDS011;35967;50.718;7.050;2024-03-02T00:03:57;2.43;;;1.10;;
50086;SDS011;35967;50.718;7.050;2024-03-02T00:14:23;2.33;;;0.97;;
50086;SDS011;35967;50.718;7.050;2024-03-02T00:24:30;4.20;;;1.17;;
50086;SDS011;35967;50.718;7.050;2024-03-02T00:34:36;4.33;;;0.80;;
50086;SDS011;35967;50.718;7.050;2024-03-02T00:44:40;1.93;;;0.90;;
50086;SDS011;35967;50.718;7.050;2024-03-02T00:54:43;2.00;;;0.77;;
50086;SDS011;35967;50.718;7.050;2024-03-02T01:04:48;5.47;;;0.90;;
50086;SDS011;35967;50.718;7.050;2024-03-02T01:14:51;2.00;;;0.70;;
50086;SDS011;35967;50.718;7.050;2024-03-02T01:24:55;2.80;;;0.77;;
50086;SDS011;35967;50.718;7.050;2024-03-02T01:34:58;2.27;;;0.70;;
50086;SDS011;35967;50.718;7.050;2024-03-02T01:45:03;1.73;;;0.70;;
50086;SDS011;35967;50.718;7.050;2024-03-02T01:55:07;1.40;;;0.63;;
50086;SDS011;35967;50.718;7.050;2024-03-02T02:05:14;2.13;;;0.73;;
50086;SDS011;35967;50.718;7.050;2024-03-02T02:15:23;4.60;;;0.80;;
50086;SDS011;35967;50.718;7.050;2024-03-02T02:25:29;1.90;;;0.67;;
50086;SDS011;35967;50.718;7.050;2024-03-02T02:35:32;1.40;;;0.70;;
50086;SDS011;35967;50.718;7.050;2024-03-02T02:45:37;2.43;;;0.77;;
50086;SDS011;35967;50.718;7.050;2024-03-02T02:55:40;3.40;;;0.73;;
50086;SDS011;35967;50.718;7.050;2024-03-02T03:05:46;2.77;;;0.70;;
50086;SDS011;35967;50.718;7.050;2024-03-02T03:15:49;3.70;;;0.53;;
50086;SDS011;35967;50.718;7.050;2024-03-02T03:25:54;2.40;;;0.70;;
50086;SDS011;35967;50.718;7.050;2024-03-02T03:35:57;3.10;;;0.60;;
50086;SDS011;35967;50.718;7.050;2024-03-02T03:46:01;1.73;;;0.50;;
50086;SDS011;35967;50.718;7.050;2024-03-02T03:56:05;4.53;;;0.90;;
50086;SDS011;35967;50.718;7.050;2024-03-02T04:06:09;6.77;;;0.70;;
50086;SDS011;35967;50.718;7.050;2024-03-02T04:16:12;1.93;;;0.70;;
50086;SDS011;35967;50.718;7.050;2024-03-02T04:26:17;3.77;;;0.60;;
50086;SDS011;35967;50.718;7.050;2024-03-02T04:36:23;1.80;;;0.60;;
50086;SDS011;35967;50.718;7.050;2024-03-02T04:46:28;2.90;;;0.67;;
50086;SDS011;35967;50.718;7.050;2024-03-02T04:56:31;2.00;;;0.70;;
50086;SDS011;35967;50.718;7.050;2024-03-02T05:06:48;2.37;;;0.90;;
50086;SDS011;35967;50.718;7.050;2024-03-02T05:16:54;2.47;;;0.70;;
50086;SDS011;35967;50.718;7.050;2024-03-02T05:26:59;2.97;;;0.77;;
50086;SDS011;35967;50.718;7.050;2024-03-02T05:37:04;2.33;;;0.80;;
50086;SDS011;35967;50.718;7.050;2024-03-02T05:47:08;2.93;;;0.70;;
50086;SDS011;35967;50.718;7.050;2024-03-02T05:57:12;3.37;;;0.80;;
50086;SDS011;35967;50.718;7.050;2024-03-02T06:07:37;2.07;;;0.60;;
50086;SDS011;35967;50.718;7.050;2024-03-02T06:17:40;1.77;;;0.60;;
50086;SDS011;35967;50.718;7.050;2024-03-02T06:27:44;3.10;;;1.10;;
50086;SDS011;35967;50.718;7.050;2024-03-02T06:37:47;2.47;;;0.90;;
50086;SDS011;35967;50.718;7.050;2024-03-02T06:47:52;2.80;;;0.83;;
50086;SDS011;35967;50.718;7.050;2024-03-02T06:57:55;3.63;;;0.90;;
50086;SDS011;35967;50.718;7.050;2024-03-02T07:07:59;4.43;;;0.90;;
50086;SDS011;35967;50.718;7.050;2024-03-02T07:18:03;3.87;;;1.23;;
50086;SDS011;35967;50.718;7.050;2024-03-02T07:28:08;3.73;;;1.17;;
50086;SDS011;35967;50.718;7.050;2024-03-02T07:38:11;1.93;;;0.97;;
50086;SDS011;35967;50.718;7.050;2024-03-02T07:48:15;3.50;;;1.00;;
50086;SDS011;35967;50.718;7.050;2024-03-02T07:58:18;3.07;;;0.90;;
50086;SDS011;35967;50.718;7.050;2024-03-02T08:08:24;3.90;;;0.93;;
50086;SDS011;35967;50.718;7.050;2024-03-02T08:18:27;3.90;;;1.13;;
50086;SDS011;35967;50.718;7.050;2024-03-02T08:28:32;3.00;;;0.97;;
50086;SDS011;35967;50.718;7.050;2024-03-02T08:38:36;3.47;;;0.90;;
50086;SDS011;35967;50.718;7.050;2024-03-02T08:48:40;4.40;;;1.00;;
50086;SDS011;35967;50.718;7.050;2024-03-02T08:58:43;4.67;;;1.20;;
50086;SDS011;35967;50.718;7.050;2024-03-02T09:08:48;2.83;;;1.20;;
50086;SDS011;35967;50.718;7.050;2024-03-02T09:18:53;2.70;;;0.90;;
50086;SDS011;35967;50.718;7.050;2024-03-02T09:28:58;3.30;;;1.10;;
50086;SDS011;35967;50.718;7.050;2024-03-02T09:39:01;4.87;;;1.00;;
50086;SDS011;35967;50.718;7.050;2024-03-02T09:49:07;2.40;;;0.80;;
50086;SDS011;35967;50.718;7.050;2024-03-02T09:59:10;4.17;;;0.93;;
50086;SDS011;35967;50.718;7.050;2024-03-02T10:09:20;2.90;;;0.90;;
50086;SDS011;35967;50.718;7.050;2024-03-02T10:19:30;4.17;;;1.10;;
50086;SDS011;35967;50.718;7.050;2024-03-02T10:29:38;3.50;;;1.10;;
50086;SDS011;35967;50.718;7.050;2024-03-02T10:39:42;3.70;;;1.13;;
50086;SDS011;35967;50.718;7.050;2024-03-02T10:49:47;7.87;;;1.17;;
50086;SDS011;35967;50.718;7.050;2024-03-02T10:59:56;3.77;;;0.80;;
50086;SDS011;35967;50.718;7.050;2024-03-02T11:10:03;2.87;;;0.90;;
50086;SDS011;35967;50.718;7.050;2024-03-02T11:20:10;3.07;;;0.80;;
50086;SDS011;35967;50.718;7.050;2024-03-02T11:30:19;2.93;;;0.63;;
50086;SDS011;35967;50.718;7.050;2024-03-02T11:40:57;3.80;;;0.70;;
50086;SDS011;35967;50.718;7.050;2024-03-02T11:51:04;4.30;;;0.80;;
50086;SDS011;35967;50.718;7.050;2024-03-02T12:01:07;1.90;;;0.50;;
50086;SDS011;35967;50.718;7.050;2024-03-02T12:11:13;1.80;;;0.60;;
50086;SDS011;35967;50.718;7.050;2024-03-02T12:21:17;2.10;;;0.57;;
50086;SDS011;35967;50.718;7.050;2024-03-02T12:31:23;3.07;;;0.57;;
50086;SDS011;35967;50.718;7.050;2024-03-02T12:41:26;3.93;;;0.80;;
50086;SDS011;35967;50.718;7.050;2024-03-02T12:51:31;1.97;;;0.50;;
50086;SDS011;35967;50.718;7.050;2024-03-02T13:01:34;2.77;;;0.50;;
50086;SDS011;35967;50.718;7.050;2024-03-02T13:11:39;3.83;;;0.50;;
50086;SDS011;35967;50.718;7.050;2024-03-02T13:21:42;2.73;;;0.50;;
50086;SDS011;35967;50.718;7.050;2024-03-02T13:31:47;1.40;;;0.50;;
50086;SDS011;35967;50.718;7.050;2024-03-02T13:41:51;1.40;;;0.50;;
50086;SDS011;35967;50.718;7.050;2024-03-02T13:52:00;4.80;;;0.70;;
50086;SDS011;35967;50.718;7.050;2024-03-02T14:02:05;1.40;;;0.60;;
50086;SDS011;35967;50.718;7.050;2024-03-02T14:12:10;0.90;;;0.47;;
50086;SDS011;35967;50.718;7.050;2024-03-02T14:22:15;2.10;;;0.50;;
50086;SDS011;35967;50.718;7.050;2024-03-02T14:32:20;3.47;;;0.60;;
50086;SDS011;35967;50.718;7.050;2024-03-02T14:42:23;2.60;;;0.70;;
50086;SDS011;35967;50.718;7.050;2024-03-02T14:52:28;2.20;;;0.60;;
50086;SDS011;35967;50.718;7.050;2024-03-02T15:02:31;5.63;;;0.80;;
50086;SDS011;35967;50.718;7.050;2024-03-02T15:12:36;2.97;;;0.70;;
50086;SDS011;35967;50.718;7.050;2024-03-02T15:22:40;2.13;;;0.70;;
50086;SDS011;35967;50.718;7.050;2024-03-02T15:32:45;1.30;;;0.50;;
50086;SDS011;35967;50.718;7.050;2024-03-02T15:42:49;0.93;;;0.40;;
50086;SDS011;35967;50.718;7.050;2024-03-02T15:52:53;1.83;;;0.70;;
50086;SDS011;35967;50.718;7.050;2024-03-02T16:02:58;1.67;;;0.60;;
50086;SDS011;35967;50.718;7.050;2024-03-02T16:13:02;1.53;;;0.60;;
50086;SDS011;35967;50.718;7.050;2024-03-02T16:23:06;3.17;;;0.93;;
50086;SDS011;35967;50.718;7.050;2024-03-02T16:33:11;1.90;;;0.50;;
50086;SDS011;35967;50.718;7.050;2024-03-02T16:43:14;1.30;;;0.60;;
50086;SDS011;35967;50.718;7.050;2024-03-02T16:53:18;2.67;;;0.70;;
50086;SDS011;35967;50.718;7.050;2024-03-02T17:03:22;1.80;;;0.70;;
50086;SDS011;35967;50.718;7.050;2024-03-02T17:13:27;2.17;;;0.70;;
50086;SDS011;35967;50.718;7.050;2024-03-02T17:23:30;2.63;;;0.77;;
50086;SDS011;35967;50.718;7.050;2024-03-02T17:33:35;2.13;;;0.80;;
50086;SDS011;35967;50.718;7.050;2024-03-02T17:43:38;1.60;;;0.80;;
50086;SDS011;35967;50.718;7.050;2024-03-02T17:53:43;2.77;;;1.20;;
50086;SDS011;35967;50.718;7.050;2024-03-02T18:03:46;1.63;;;0.70;;
50086;SDS011;35967;50.718;7.050;2024-03-02T18:13:50;2.90;;;1.00;;
50086;SDS011;35967;50.718;7.050;2024-03-02T18:23:54;2.53;;;0.80;;
50086;SDS011;35967;50.718;7.050;2024-03-02T18:33:59;2.77;;;0.80;;
50086;SDS011;35967;50.718;7.050;2024-03-02T18:44:02;2.60;;;0.80;;
50086;SDS011;35967;50.718;7.050;2024-03-02T18:54:07;5.70;;;0.70;;
50086;SDS011;35967;50.718;7.050;2024-03-02T19:04:13;2.50;;;1.00;;
50086;SDS011;35967;50.718;7.050;2024-03-02T19:14:18;2.77;;;1.10;;
50086;SDS011;35967;50.718;7.050;2024-03-02T19:24:20;3.93;;;1.10;;
50086;SDS011;35967;50.718;7.050;2024-03-02T19:34:25;3.43;;;1.10;;
50086;SDS011;35967;50.718;7.050;2024-03-02T19:44:28;3.30;;;1.20;;
50086;SDS011;35967;50.718;7.050;2024-03-02T19:54:36;3.77;;;1.30;;
50086;SDS011;35967;50.718;7.050;2024-03-02T20:04:39;3.27;;;1.43;;
50086;SDS011;35967;50.718;7.050;2024-03-02T20:14:45;4.60;;;1.43;;
50086;SDS011;35967;50.718;7.050;2024-03-02T20:24:48;6.33;;;1.70;;
50086;SDS011;35967;50.718;7.050;2024-03-02T20:36:05;4.63;;;1.87;;
50086;SDS011;35967;50.718;7.050;2024-03-02T20:46:14;3.37;;;1.50;;
50086;SDS011;35967;50.718;7.050;2024-03-02T20:56:19;4.60;;;1.40;;
50086;SDS011;35967;50.718;7.050;2024-03-02T21:06:22;3.80;;;1.70;;
50086;SDS011;35967;50.718;7.050;2024-03-02T21:16:27;4.53;;;1.47;;
50086;SDS011;35967;50.718;7.050;2024-03-02T21:26:30;6.17;;;1.70;;
50086;SDS011;35967;50.718;7.050;2024-03-02T21:36:35;4.30;;;1.40;;
50086;SDS011;35967;50.718;7.050;2024-03-02T21:46:38;7.40;;;1.60;;
50086;SDS011;35967;50.718;7.050;2024-03-02T21:56:42;3.33;;;1.70;;
50086;SDS011;35967;50.718;7.050;2024-03-02T22:06:48;3.37;;;1.67;;
50086;SDS011;35967;50.718;7.050;2024-03-02T22:16:52;8.40;;;2.00;;
50086;SDS011;35967;50.718;7.050;2024-03-02T22:26:55;5.13;;;1.93;;
50086;SDS011;35967;50.718;7.050;2024-03-02T22:37:00;3.63;;;1.57;;
50086;SDS011;35967;50.718;7.050;2024-03-02T22:47:04;9.47;;;2.07;;
50086;SDS011;35967;50.718;7.050;2024-03-02T22:57:08;6.23;;;2.47;;
50086;SDS011;35967;50.718;7.050;2024-03-02T23:07:18;5.57;;;2.90;;
50086;SDS011;35967;50.718;7.050;2024-03-02T23:17:24;7.70;;;3.13;;
50086;SDS011;35967;50.718;7.050;2024-03-02T23:27:26;7.57;;;3.23;;
50086;SDS011;35967;50.718;7.050;2024-03-02T23:37:30;6.73;;;3.40;;
50086;SDS011;35967;50.718;7.050;2024-03-02T23:47:33;5.30;;;2.83;;
50086;SDS011;35967;50.718;7.050;2024-03-02T23:57:38;10.90;;;3.93;;
